sensor_id;sensor_type;location;lat;lon;timestamp;pressure;altitude;pressure_sealevel;temperature;humidity
45888;BME280;31595;51.418;7.572;2023-03-19T00:01:50;99857.72;;;9.91;70.76
45888;BME280;31595;51.418;7.572;2023-03-19T00:04:18;99849.50;;;9.78;70.75
45888;BME280;31595;51.418;7.572;2023-03-19T00:06:46;99850.16;;;9.74;70.41
45888;BME280;31595;51.418;7.572;2023-03-19T00:09:17;99853.88;;;9.70;71.49
45888;BME280;31595;51.418;7.572;2023-03-19T00:11:46;99858.13;;;9.67;71.75
45888;BME280;31595;51.418;7.572;2023-03-19T00:14:16;99863.06;;;9.70;71.41
45888;BME280;31595;51.418;7.572;2023-03-19T00:16:43;99865.69;;;9.75;72.53
45888;BME280;31595;51.418;7.572;2023-03-19T00:19:14;99867.47;;;9.80;71.43
45888;BME280;31595;51.418;7.572;2023-03-19T00:21:42;99858.81;;;9.82;71.47
45888;BME280;31595;51.418;7.572;2023-03-19T00:24:10;99868.31;;;9.81;72.12
45888;BME280;31595;51.418;7.572;2023-03-19T00:26:37;99878.63;;;9.80;71.53
45888;BME280;31595;51.418;7.572;2023-03-19T00:29:09;99871.25;;;9.84;72.74
45888;BME280;31595;51.418;7.572;2023-03-19T00:31:40;99866.19;;;9.86;72.55
45888;BME280;31595;51.418;7.572;2023-03-19T00:34:08;99870.44;;;9.84;72.68
45888;BME280;31595;51.418;7.572;2023-03-19T00:36:36;99864.56;;;9.85;72.25
45888;BME280;31595;51.418;7.572;2023-03-19T00:39:05;99863.41;;;9.78;71.85
45888;BME280;31595;51.418;7.572;2023-03-19T00:41:34;99865.34;;;9.68;72.90
45888;BME280;31595;51.418;7.572;2023-03-19T00:44:02;99870.41;;;9.66;73.09
45888;BME280;31595;51.418;7.572;2023-03-19T00:46:33;99864.00;;;9.66;72.72
45888;BME280;31595;51.418;7.572;2023-03-19T00:49:01;99867.94;;;9.65;71.86
45888;BME280;31595;51.418;7.572;2023-03-19T00:51:29;99865.66;;;9.58;71.30
45888;BME280;31595;51.418;7.572;2023-03-19T00:53:56;99860.56;;;9.51;72.59
45888;BME280;31595;51.418;7.572;2023-03-19T00:56:27;99868.03;;;9.42;71.88
45888;BME280;31595;51.418;7.572;2023-03-19T00:58:55;99863.13;;;9.39;71.95
45888;BME280;31595;51.418;7.572;2023-03-19T01:01:23;99870.16;;;9.37;72.58
45888;BME280;31595;51.418;7.572;2023-03-19T01:03:55;99864.09;;;9.34;73.03
45888;BME280;31595;51.418;7.572;2023-03-19T01:06:23;99870.28;;;9.31;71.76
45888;BME280;31595;51.418;7.572;2023-03-19T01:08:51;99872.75;;;9.33;72.07
45888;BME280;31595;51.418;7.572;2023-03-19T01:11:18;99874.06;;;9.35;72.79
45888;BME280;31595;51.418;7.572;2023-03-19T01:13:46;99872.59;;;9.38;72.26
45888;BME280;31595;51.418;7.572;2023-03-19T01:16:14;99883.09;;;9.41;73.35
45888;BME280;31595;51.418;7.572;2023-03-19T01:18:45;99879.97;;;9.43;73.33
45888;BME280;31595;51.418;7.572;2023-03-19T01:21:14;99876.75;;;9.49;73.00
45888;BME280;31595;51.418;7.572;2023-03-19T01:23:42;99875.91;;;9.49;72.21
45888;BME280;31595;51.418;7.572;2023-03-19T01:26:19;99868.22;;;9.46;71.93
45888;BME280;31595;51.418;7.572;2023-03-19T01:28:47;99861.84;;;9.45;71.28
45888;BME280;31595;51.418;7.572;2023-03-19T01:31:15;99861.00;;;9.45;71.86
45888;BME280;31595;51.418;7.572;2023-03-19T01:33:43;99872.00;;;9.50;71.85
45888;BME280;31595;51.418;7.572;2023-03-19T01:36:10;99868.25;;;9.54;71.70
45888;BME280;31595;51.418;7.572;2023-03-19T01:38:40;99867.28;;;9.59;72.26
45888;BME280;31595;51.418;7.572;2023-03-19T01:41:07;99861.72;;;9.59;72.15
45888;BME280;31595;51.418;7.572;2023-03-19T01:43:35;99866.66;;;9.62;70.80
45888;BME280;31595;51.418;7.572;2023-03-19T01:46:06;99851.75;;;9.67;70.96
45888;BME280;31595;51.418;7.572;2023-03-19T01:48:40;99854.22;;;9.68;70.71
45888;BME280;31595;51.418;7.572;2023-03-19T01:51:15;99847.50;;;9.69;72.06
45888;BME280;31595;51.418;7.572;2023-03-19T01:53:50;99854.38;;;9.72;70.89
45888;BME280;31595;51.418;7.572;2023-03-19T01:56:20;99859.44;;;9.70;71.58
45888;BME280;31595;51.418;7.572;2023-03-19T01:58:52;99854.25;;;9.77;70.64
45888;BME280;31595;51.418;7.572;2023-03-19T02:01:22;99860.78;;;9.72;70.90
45888;BME280;31595;51.418;7.572;2023-03-19T02:03:50;99856.22;;;9.77;71.37
45888;BME280;31595;51.418;7.572;2023-03-19T02:06:19;99853.56;;;9.71;70.94
45888;BME280;31595;51.418;7.572;2023-03-19T02:08:50;99852.94;;;9.74;70.00
45888;BME280;31595;51.418;7.572;2023-03-19T02:11:22;99851.94;;;9.70;70.17
45888;BME280;31595;51.418;7.572;2023-03-19T02:13:53;99857.16;;;9.63;70.00
45888;BME280;31595;51.418;7.572;2023-03-19T02:16:20;99857.31;;;9.58;70.71
45888;BME280;31595;51.418;7.572;2023-03-19T02:18:47;99859.72;;;9.51;71.10
45888;BME280;31595;51.418;7.572;2023-03-19T02:21:16;99857.94;;;9.55;70.54
45888;BME280;31595;51.418;7.572;2023-03-19T02:23:48;99862.38;;;9.56;70.97
45888;BME280;31595;51.418;7.572;2023-03-19T02:26:20;99857.78;;;9.51;70.80
45888;BME280;31595;51.418;7.572;2023-03-19T02:28:51;99855.16;;;9.55;70.85
45888;BME280;31595;51.418;7.572;2023-03-19T02:31:19;99854.84;;;9.57;71.34
45888;BME280;31595;51.418;7.572;2023-03-19T02:33:56;99855.34;;;9.67;70.00
45888;BME280;31595;51.418;7.572;2023-03-19T02:36:26;99846.38;;;9.70;70.63
45888;BME280;31595;51.418;7.572;2023-03-19T02:38:56;99849.66;;;9.72;70.05
45888;BME280;31595;51.418;7.572;2023-03-19T02:41:27;99852.94;;;9.74;70.79
45888;BME280;31595;51.418;7.572;2023-03-19T02:43:57;99855.38;;;9.76;70.97
45888;BME280;31595;51.418;7.572;2023-03-19T02:46:24;99849.00;;;9.84;71.10
45888;BME280;31595;51.418;7.572;2023-03-19T02:48:51;99850.47;;;9.82;71.39
45888;BME280;31595;51.418;7.572;2023-03-19T02:51:19;99855.56;;;9.80;71.23
45888;BME280;31595;51.418;7.572;2023-03-19T02:53:46;99852.28;;;9.78;71.33
45888;BME280;31595;51.418;7.572;2023-03-19T02:56:13;99844.09;;;9.81;71.17
45888;BME280;31595;51.418;7.572;2023-03-19T02:58:42;99837.25;;;9.79;70.03
45888;BME280;31595;51.418;7.572;2023-03-19T03:01:09;99838.88;;;9.80;70.66
45888;BME280;31595;51.418;7.572;2023-03-19T03:03:36;99845.41;;;9.75;70.71
45888;BME280;31595;51.418;7.572;2023-03-19T03:06:04;99843.25;;;9.72;71.23
45888;BME280;31595;51.418;7.572;2023-03-19T03:08:31;99851.28;;;9.73;70.80
45888;BME280;31595;51.418;7.572;2023-03-19T03:10:59;99857.16;;;9.72;69.74
45888;BME280;31595;51.418;7.572;2023-03-19T03:13:27;99849.16;;;9.62;70.22
45888;BME280;31595;51.418;7.572;2023-03-19T03:15:56;99853.88;;;9.61;69.98
45888;BME280;31595;51.418;7.572;2023-03-19T03:18:23;99851.59;;;9.63;71.24
45888;BME280;31595;51.418;7.572;2023-03-19T03:20:51;99857.50;;;9.62;70.54
45888;BME280;31595;51.418;7.572;2023-03-19T03:23:19;99846.81;;;9.55;70.12
45888;BME280;31595;51.418;7.572;2023-03-19T03:25:49;99846.97;;;9.50;69.74
45888;BME280;31595;51.418;7.572;2023-03-19T03:28:17;99848.44;;;9.47;70.81
45888;BME280;31595;51.418;7.572;2023-03-19T03:30:45;99852.53;;;9.50;70.21
45888;BME280;31595;51.418;7.572;2023-03-19T03:33:13;99854.66;;;9.53;69.76
45888;BME280;31595;51.418;7.572;2023-03-19T03:35:42;99847.97;;;9.54;70.71
45888;BME280;31595;51.418;7.572;2023-03-19T03:38:09;99854.03;;;9.56;70.08
45888;BME280;31595;51.418;7.572;2023-03-19T03:40:37;99851.09;;;9.61;70.66
45888;BME280;31595;51.418;7.572;2023-03-19T03:43:04;99847.00;;;9.67;70.73
45888;BME280;31595;51.418;7.572;2023-03-19T03:45:31;99852.44;;;9.72;70.79
45888;BME280;31595;51.418;7.572;2023-03-19T03:47:59;99847.53;;;9.78;70.59
45888;BME280;31595;51.418;7.572;2023-03-19T03:50:27;99848.84;;;9.81;69.89
45888;BME280;31595;51.418;7.572;2023-03-19T03:52:54;99850.97;;;9.84;70.49
45888;BME280;31595;51.418;7.572;2023-03-19T03:55:22;99849.69;;;9.90;69.82
45888;BME280;31595;51.418;7.572;2023-03-19T03:57:49;99848.69;;;9.94;69.84
45888;BME280;31595;51.418;7.572;2023-03-19T04:00:17;99856.41;;;9.98;69.34
45888;BME280;31595;51.418;7.572;2023-03-19T04:02:44;99853.28;;;9.99;69.98
45888;BME280;31595;51.418;7.572;2023-03-19T04:05:12;99854.13;;;10.00;69.98
45888;BME280;31595;51.418;7.572;2023-03-19T04:07:40;99857.88;;;10.04;68.96
45888;BME280;31595;51.418;7.572;2023-03-19T04:10:09;99864.59;;;10.03;69.28
45888;BME280;31595;51.418;7.572;2023-03-19T04:12:36;99850.19;;;10.01;69.11
45888;BME280;31595;51.418;7.572;2023-03-19T04:15:06;99858.03;;;10.07;69.09
45888;BME280;31595;51.418;7.572;2023-03-19T04:17:34;99856.56;;;10.10;69.47
45888;BME280;31595;51.418;7.572;2023-03-19T04:20:01;99857.88;;;10.12;70.10
45888;BME280;31595;51.418;7.572;2023-03-19T04:22:29;99858.69;;;10.13;69.19
45888;BME280;31595;51.418;7.572;2023-03-19T04:24:59;99860.66;;;10.21;69.50
45888;BME280;31595;51.418;7.572;2023-03-19T04:27:26;99860.00;;;10.24;68.87
45888;BME280;31595;51.418;7.572;2023-03-19T04:29:54;99861.00;;;10.28;68.74
45888;BME280;31595;51.418;7.572;2023-03-19T04:32:21;99855.94;;;10.30;68.16
45888;BME280;31595;51.418;7.572;2023-03-19T04:34:48;99858.72;;;10.30;68.72
45888;BME280;31595;51.418;7.572;2023-03-19T04:37:15;99866.94;;;10.35;68.61
45888;BME280;31595;51.418;7.572;2023-03-19T04:39:43;99859.88;;;10.38;69.32
45888;BME280;31595;51.418;7.572;2023-03-19T04:42:12;99872.50;;;10.44;68.85
45888;BME280;31595;51.418;7.572;2023-03-19T04:44:40;99862.97;;;10.45;69.58
45888;BME280;31595;51.418;7.572;2023-03-19T04:47:07;99860.69;;;10.47;68.75
45888;BME280;31595;51.418;7.572;2023-03-19T04:49:35;99872.31;;;10.49;69.19
45888;BME280;31595;51.418;7.572;2023-03-19T04:52:03;99865.25;;;10.52;68.60
45888;BME280;31595;51.418;7.572;2023-03-19T04:54:31;99875.59;;;10.51;67.65
45888;BME280;31595;51.418;7.572;2023-03-19T04:56:58;99883.13;;;10.51;68.29
45888;BME280;31595;51.418;7.572;2023-03-19T04:59:28;99881.50;;;10.50;68.58
45888;BME280;31595;51.418;7.572;2023-03-19T05:01:55;99891.47;;;10.51;67.95
45888;BME280;31595;51.418;7.572;2023-03-19T05:04:22;99894.44;;;10.54;67.76
45888;BME280;31595;51.418;7.572;2023-03-19T05:06:49;99894.56;;;10.58;67.76
45888;BME280;31595;51.418;7.572;2023-03-19T05:09:17;99896.56;;;10.57;68.03
45888;BME280;31595;51.418;7.572;2023-03-19T05:11:44;99905.72;;;10.58;68.73
45888;BME280;31595;51.418;7.572;2023-03-19T05:14:11;99904.25;;;10.61;68.76
45888;BME280;31595;51.418;7.572;2023-03-19T05:16:40;99905.75;;;10.67;68.02
45888;BME280;31595;51.418;7.572;2023-03-19T05:19:07;99909.16;;;10.72;68.39
45888;BME280;31595;51.418;7.572;2023-03-19T05:21:36;99914.22;;;10.79;68.92
45888;BME280;31595;51.418;7.572;2023-03-19T05:24:04;99906.00;;;10.91;68.36
45888;BME280;31595;51.418;7.572;2023-03-19T05:26:31;99918.47;;;10.94;68.77
45888;BME280;31595;51.418;7.572;2023-03-19T05:28:58;99902.22;;;11.05;68.22
45888;BME280;31595;51.418;7.572;2023-03-19T05:31:26;99903.31;;;11.21;68.12
45888;BME280;31595;51.418;7.572;2023-03-19T05:33:54;99911.97;;;11.37;67.92
45888;BME280;31595;51.418;7.572;2023-03-19T05:36:22;99908.97;;;11.51;66.96
45888;BME280;31595;51.418;7.572;2023-03-19T05:38:49;99911.34;;;11.61;66.92
45888;BME280;31595;51.418;7.572;2023-03-19T05:41:16;99910.69;;;11.64;66.73
45888;BME280;31595;51.418;7.572;2023-03-19T05:43:43;99902.28;;;11.73;66.52
45888;BME280;31595;51.418;7.572;2023-03-19T05:46:11;99918.22;;;11.72;66.46
45888;BME280;31595;51.418;7.572;2023-03-19T05:48:38;99916.88;;;11.78;66.24
45888;BME280;31595;51.418;7.572;2023-03-19T05:51:07;99927.34;;;11.82;65.69
45888;BME280;31595;51.418;7.572;2023-03-19T05:53:34;99921.28;;;11.79;65.58
45888;BME280;31595;51.418;7.572;2023-03-19T05:56:02;99920.22;;;12.02;65.37
45888;BME280;31595;51.418;7.572;2023-03-19T05:58:29;99917.84;;;12.12;65.05
45888;BME280;31595;51.418;7.572;2023-03-19T06:00:56;99913.50;;;12.24;64.97
45888;BME280;31595;51.418;7.572;2023-03-19T06:03:23;99921.22;;;12.27;63.95
45888;BME280;31595;51.418;7.572;2023-03-19T06:05:52;99922.28;;;12.34;64.08
45888;BME280;31595;51.418;7.572;2023-03-19T06:08:21;99922.34;;;12.47;64.08
45888;BME280;31595;51.418;7.572;2023-03-19T06:10:48;99926.91;;;12.51;63.42
45888;BME280;31595;51.418;7.572;2023-03-19T06:13:16;99927.88;;;12.55;63.10
45888;BME280;31595;51.418;7.572;2023-03-19T06:15:43;99918.53;;;12.72;62.47
45888;BME280;31595;51.418;7.572;2023-03-19T06:18:10;99912.41;;;12.79;62.82
45888;BME280;31595;51.418;7.572;2023-03-19T06:20:37;99921.50;;;12.88;61.86
45888;BME280;31595;51.418;7.572;2023-03-19T06:23:05;99927.56;;;12.90;61.36
45888;BME280;31595;51.418;7.572;2023-03-19T06:25:33;99930.91;;;13.05;61.89
45888;BME280;31595;51.418;7.572;2023-03-19T06:28:01;99936.97;;;13.07;60.73
45888;BME280;31595;51.418;7.572;2023-03-19T06:30:29;99935.34;;;13.18;60.43
45888;BME280;31595;51.418;7.572;2023-03-19T06:32:56;99942.84;;;13.26;61.08
45888;BME280;31595;51.418;7.572;2023-03-19T06:35:23;99936.84;;;13.36;60.40
45888;BME280;31595;51.418;7.572;2023-03-19T06:37:51;99938.75;;;13.57;60.24
45888;BME280;31595;51.418;7.572;2023-03-19T06:40:19;99933.72;;;13.63;59.76
45888;BME280;31595;51.418;7.572;2023-03-19T06:42:47;99942.94;;;13.88;58.38
45888;BME280;31595;51.418;7.572;2023-03-19T06:45:15;99953.00;;;14.01;57.63
45888;BME280;31595;51.418;7.572;2023-03-19T06:47:44;99953.66;;;14.23;58.45
45888;BME280;31595;51.418;7.572;2023-03-19T06:50:12;99948.06;;;14.23;58.20
45888;BME280;31595;51.418;7.572;2023-03-19T06:52:40;99945.25;;;14.35;57.74
45888;BME280;31595;51.418;7.572;2023-03-19T06:55:07;99951.81;;;14.27;58.13
45888;BME280;31595;51.418;7.572;2023-03-19T06:57:36;99960.47;;;14.21;60.61
45888;BME280;31595;51.418;7.572;2023-03-19T07:00:06;99963.34;;;14.25;60.84
45888;BME280;31595;51.418;7.572;2023-03-19T07:02:35;99966.72;;;14.43;60.42
45888;BME280;31595;51.418;7.572;2023-03-19T07:05:02;99977.22;;;14.58;59.78
45888;BME280;31595;51.418;7.572;2023-03-19T07:07:30;99972.09;;;14.36;61.13
45888;BME280;31595;51.418;7.572;2023-03-19T07:09:57;99976.22;;;14.26;59.99
45888;BME280;31595;51.418;7.572;2023-03-19T07:12:24;99970.00;;;14.08;61.23
45888;BME280;31595;51.418;7.572;2023-03-19T07:14:53;99981.22;;;14.08;59.99
45888;BME280;31595;51.418;7.572;2023-03-19T07:17:23;99981.69;;;14.10;59.70
45888;BME280;31595;51.418;7.572;2023-03-19T07:19:51;99974.09;;;14.11;59.55
45888;BME280;31595;51.418;7.572;2023-03-19T07:22:18;99974.09;;;14.23;59.52
45888;BME280;31595;51.418;7.572;2023-03-19T07:24:46;99982.81;;;14.46;60.21
45888;BME280;31595;51.418;7.572;2023-03-19T07:27:14;99983.06;;;14.53;59.31
45888;BME280;31595;51.418;7.572;2023-03-19T07:29:41;99986.53;;;14.75;59.06
45888;BME280;31595;51.418;7.572;2023-03-19T07:32:09;99989.97;;;14.96;58.09
45888;BME280;31595;51.418;7.572;2023-03-19T07:34:38;99982.31;;;15.09;56.53
45888;BME280;31595;51.418;7.572;2023-03-19T07:37:05;99989.81;;;15.05;56.30
45888;BME280;31595;51.418;7.572;2023-03-19T07:39:32;99986.50;;;15.15;55.98
45888;BME280;31595;51.418;7.572;2023-03-19T07:42:00;99987.06;;;15.21;56.95
45888;BME280;31595;51.418;7.572;2023-03-19T07:44:27;99993.72;;;15.29;55.82
45888;BME280;31595;51.418;7.572;2023-03-19T07:46:54;99991.38;;;15.47;55.05
45888;BME280;31595;51.418;7.572;2023-03-19T07:49:22;99989.09;;;15.80;55.13
45888;BME280;31595;51.418;7.572;2023-03-19T07:51:50;99986.03;;;17.08;51.70
45888;BME280;31595;51.418;7.572;2023-03-19T07:54:18;99983.91;;;18.09;49.47
45888;BME280;31595;51.418;7.572;2023-03-19T07:56:45;99977.97;;;19.32;46.54
45888;BME280;31595;51.418;7.572;2023-03-19T07:59:12;99991.31;;;20.13;45.30
45888;BME280;31595;51.418;7.572;2023-03-19T08:01:41;99984.63;;;20.98;41.84
45888;BME280;31595;51.418;7.572;2023-03-19T08:04:08;99992.09;;;20.58;42.12
45888;BME280;31595;51.418;7.572;2023-03-19T08:06:35;99993.31;;;20.13;43.66
45888;BME280;31595;51.418;7.572;2023-03-19T08:09:05;99988.69;;;19.90;43.81
45888;BME280;31595;51.418;7.572;2023-03-19T08:11:32;99999.97;;;19.86;43.37
45888;BME280;31595;51.418;7.572;2023-03-19T08:13:59;99992.13;;;19.35;44.51
45888;BME280;31595;51.418;7.572;2023-03-19T08:16:27;99997.34;;;18.99;44.51
45888;BME280;31595;51.418;7.572;2023-03-19T08:18:57;99994.78;;;18.34;46.29
45888;BME280;31595;51.418;7.572;2023-03-19T08:21:24;100013.41;;;17.92;46.92
45888;BME280;31595;51.418;7.572;2023-03-19T08:23:52;100000.25;;;17.15;49.05
45888;BME280;31595;51.418;7.572;2023-03-19T08:26:21;100000.69;;;17.17;49.65
45888;BME280;31595;51.418;7.572;2023-03-19T08:28:48;100003.59;;;17.01;49.59
45888;BME280;31595;51.418;7.572;2023-03-19T08:31:15;100013.53;;;16.79;49.84
45888;BME280;31595;51.418;7.572;2023-03-19T08:33:42;100022.31;;;16.77;50.61
45888;BME280;31595;51.418;7.572;2023-03-19T08:36:11;100022.09;;;16.67;51.58
45888;BME280;31595;51.418;7.572;2023-03-19T08:38:39;100027.38;;;16.52;51.86
45888;BME280;31595;51.418;7.572;2023-03-19T08:41:06;100030.19;;;16.52;52.04
45888;BME280;31595;51.418;7.572;2023-03-19T08:43:36;100044.38;;;16.40;52.08
45888;BME280;31595;51.418;7.572;2023-03-19T08:46:04;100040.19;;;16.18;52.71
45888;BME280;31595;51.418;7.572;2023-03-19T08:48:31;100043.75;;;15.99;53.09
45888;BME280;31595;51.418;7.572;2023-03-19T08:51:01;100045.28;;;15.68;53.36
45888;BME280;31595;51.418;7.572;2023-03-19T08:53:28;100041.44;;;15.45;54.62
45888;BME280;31595;51.418;7.572;2023-03-19T08:55:58;100039.28;;;15.54;53.95
45888;BME280;31595;51.418;7.572;2023-03-19T08:58:26;100055.88;;;15.59;54.79
45888;BME280;31595;51.418;7.572;2023-03-19T09:01:01;100043.38;;;15.56;53.93
45888;BME280;31595;51.418;7.572;2023-03-19T09:03:29;100044.34;;;15.76;53.28
45888;BME280;31595;51.418;7.572;2023-03-19T09:05:57;100048.81;;;16.09;53.51
45888;BME280;31595;51.418;7.572;2023-03-19T09:08:26;100052.16;;;16.47;52.40
45888;BME280;31595;51.418;7.572;2023-03-19T09:10:54;100057.41;;;16.48;52.08
45888;BME280;31595;51.418;7.572;2023-03-19T09:13:22;100049.94;;;16.72;51.71
45888;BME280;31595;51.418;7.572;2023-03-19T09:15:50;100051.25;;;16.94;51.71
45888;BME280;31595;51.418;7.572;2023-03-19T09:18:19;100054.91;;;17.33;51.00
45888;BME280;31595;51.418;7.572;2023-03-19T09:20:48;100045.72;;;17.56;50.13
45888;BME280;31595;51.418;7.572;2023-03-19T09:23:16;100043.59;;;17.92;49.51
45888;BME280;31595;51.418;7.572;2023-03-19T09:25:43;100046.78;;;18.13;49.05
45888;BME280;31595;51.418;7.572;2023-03-19T09:28:11;100053.00;;;17.80;48.97
45888;BME280;31595;51.418;7.572;2023-03-19T09:30:38;100052.06;;;17.53;49.27
45888;BME280;31595;51.418;7.572;2023-03-19T09:33:05;100061.56;;;17.44;49.32
45888;BME280;31595;51.418;7.572;2023-03-19T09:35:34;100067.44;;;17.36;49.98
45888;BME280;31595;51.418;7.572;2023-03-19T09:38:04;100061.44;;;17.18;50.48
45888;BME280;31595;51.418;7.572;2023-03-19T09:40:34;100067.56;;;17.62;49.92
45888;BME280;31595;51.418;7.572;2023-03-19T09:43:16;100066.69;;;18.01;48.72
45888;BME280;31595;51.418;7.572;2023-03-19T09:45:47;100068.66;;;17.77;49.58
45888;BME280;31595;51.418;7.572;2023-03-19T09:48:17;100067.63;;;17.85;49.69
45888;BME280;31595;51.418;7.572;2023-03-19T09:50:48;100064.13;;;17.92;50.05
45888;BME280;31595;51.418;7.572;2023-03-19T09:53:23;100068.28;;;18.21;48.34
45888;BME280;31595;51.418;7.572;2023-03-19T09:56:07;100062.78;;;18.78;47.69
45888;BME280;31595;51.418;7.572;2023-03-19T09:58:52;100065.81;;;20.32;44.14
45888;BME280;31595;51.418;7.572;2023-03-19T10:01:24;100054.09;;;24.08;37.87
45888;BME280;31595;51.418;7.572;2023-03-19T10:04:08;100053.72;;;26.97;32.90
45888;BME280;31595;51.418;7.572;2023-03-19T10:06:44;100046.78;;;30.06;28.21
45888;BME280;31595;51.418;7.572;2023-03-19T10:09:31;100032.84;;;32.01;25.81
45888;BME280;31595;51.418;7.572;2023-03-19T10:12:10;100043.22;;;33.87;23.05
45888;BME280;31595;51.418;7.572;2023-03-19T10:14:59;100035.34;;;32.30;24.04
45888;BME280;31595;51.418;7.572;2023-03-19T10:17:31;100029.03;;;32.82;24.06
45888;BME280;31595;51.418;7.572;2023-03-19T10:20:03;100044.38;;;32.10;23.87
45888;BME280;31595;51.418;7.572;2023-03-19T10:22:37;100046.22;;;30.24;26.11
45888;BME280;31595;51.418;7.572;2023-03-19T10:25:09;100045.97;;;28.63;27.69
45888;BME280;31595;51.418;7.572;2023-03-19T10:27:39;100051.97;;;29.57;27.11
45888;BME280;31595;51.418;7.572;2023-03-19T10:30:15;100050.88;;;29.38;27.67
45888;BME280;31595;51.418;7.572;2023-03-19T10:32:52;100055.13;;;27.89;29.29
45888;BME280;31595;51.418;7.572;2023-03-19T10:35:36;100053.28;;;27.19;29.84
45888;BME280;31595;51.418;7.572;2023-03-19T10:38:21;100045.56;;;27.39;29.74
45888;BME280;31595;51.418;7.572;2023-03-19T10:41:03;100049.84;;;27.87;28.53
45888;BME280;31595;51.418;7.572;2023-03-19T10:43:32;100058.72;;;27.73;28.57
45888;BME280;31595;51.418;7.572;2023-03-19T10:46:02;100043.72;;;32.47;23.60
45888;BME280;31595;51.418;7.572;2023-03-19T10:48:30;100044.16;;;33.13;22.11
45888;BME280;31595;51.418;7.572;2023-03-19T10:51:00;100040.09;;;31.84;22.87
45888;BME280;31595;51.418;7.572;2023-03-19T10:53:34;100053.94;;;29.18;26.31
45888;BME280;31595;51.418;7.572;2023-03-19T10:56:06;100057.41;;;28.30;27.38
45888;BME280;31595;51.418;7.572;2023-03-19T10:58:55;100047.56;;;27.19;29.09
45888;BME280;31595;51.418;7.572;2023-03-19T11:01:27;100049.19;;;27.20;29.57
45888;BME280;31595;51.418;7.572;2023-03-19T11:03:56;100055.19;;;27.05;29.60
45888;BME280;31595;51.418;7.572;2023-03-19T11:06:25;100046.81;;;27.94;28.65
45888;BME280;31595;51.418;7.572;2023-03-19T11:08:59;100045.06;;;32.55;23.89
45888;BME280;31595;51.418;7.572;2023-03-19T11:11:35;100045.75;;;31.96;23.34
45888;BME280;31595;51.418;7.572;2023-03-19T11:14:13;100049.19;;;30.08;25.56
45888;BME280;31595;51.418;7.572;2023-03-19T11:16:54;100055.91;;;27.53;28.24
45888;BME280;31595;51.418;7.572;2023-03-19T11:19:25;100057.06;;;27.36;29.09
45888;BME280;31595;51.418;7.572;2023-03-19T11:25:19;100058.75;;;24.85;32.42
45888;BME280;31595;51.418;7.572;2023-03-19T11:27:58;100061.44;;;24.05;34.14
45888;BME280;31595;51.418;7.572;2023-03-19T11:30:36;100061.78;;;23.37;34.63
45888;BME280;31595;51.418;7.572;2023-03-19T11:36:12;100077.19;;;21.64;38.44
45888;BME280;31595;51.418;7.572;2023-03-19T11:38:55;100071.00;;;21.40;39.08
45888;BME280;31595;51.418;7.572;2023-03-19T11:41:54;100076.91;;;21.14;39.00
45888;BME280;31595;51.418;7.572;2023-03-19T11:44:45;100072.63;;;20.72;40.00
45888;BME280;31595;51.418;7.572;2023-03-19T11:47:43;100077.50;;;20.78;41.03
45888;BME280;31595;51.418;7.572;2023-03-19T11:50:34;100071.31;;;21.24;39.69
45888;BME280;31595;51.418;7.572;2023-03-19T11:53:20;100061.75;;;21.51;39.35
45888;BME280;31595;51.418;7.572;2023-03-19T11:56:15;100062.69;;;21.98;38.12
45888;BME280;31595;51.418;7.572;2023-03-19T11:59:16;100049.78;;;22.40;37.34
45888;BME280;31595;51.418;7.572;2023-03-19T12:02:21;100043.75;;;27.05;29.54
45888;BME280;31595;51.418;7.572;2023-03-19T12:05:20;100059.19;;;31.02;24.62
45888;BME280;31595;51.418;7.572;2023-03-19T12:08:23;100047.44;;;29.30;26.63
45888;BME280;31595;51.418;7.572;2023-03-19T12:11:15;100046.88;;;28.60;26.98
45888;BME280;31595;51.418;7.572;2023-03-19T12:14:11;100057.41;;;26.00;29.88
45888;BME280;31595;51.418;7.572;2023-03-19T12:17:02;100059.41;;;28.50;28.13
45888;BME280;31595;51.418;7.572;2023-03-19T12:23:14;100047.03;;;26.60;29.12
45888;BME280;31595;51.418;7.572;2023-03-19T12:25:58;100051.38;;;26.18;30.15
45888;BME280;31595;51.418;7.572;2023-03-19T12:28:33;100059.19;;;24.80;32.50
45888;BME280;31595;51.418;7.572;2023-03-19T12:31:21;100058.66;;;22.63;39.43
45888;BME280;31595;51.418;7.572;2023-03-19T12:34:11;100066.75;;;22.18;37.85
45888;BME280;31595;51.418;7.572;2023-03-19T12:36:49;100068.31;;;21.83;37.76
45888;BME280;31595;51.418;7.572;2023-03-19T12:39:41;100063.13;;;20.53;41.52
45888;BME280;31595;51.418;7.572;2023-03-19T12:42:19;100066.78;;;20.50;41.56
45888;BME280;31595;51.418;7.572;2023-03-19T12:45:01;100060.69;;;20.48;41.50
45888;BME280;31595;51.418;7.572;2023-03-19T12:47:31;100061.88;;;20.47;40.67
45888;BME280;31595;51.418;7.572;2023-03-19T12:50:12;100058.84;;;20.70;40.48
45888;BME280;31595;51.418;7.572;2023-03-19T12:52:49;100057.84;;;20.48;40.81
45888;BME280;31595;51.418;7.572;2023-03-19T12:55:19;100050.97;;;24.92;33.81
45888;BME280;31595;51.418;7.572;2023-03-19T12:57:49;100049.84;;;25.21;31.65
45888;BME280;31595;51.418;7.572;2023-03-19T13:00:21;100047.44;;;24.29;33.95
45888;BME280;31595;51.418;7.572;2023-03-19T13:03:00;100056.31;;;23.75;34.14
45888;BME280;31595;51.418;7.572;2023-03-19T13:05:36;100047.47;;;23.51;34.39
45888;BME280;31595;51.418;7.572;2023-03-19T13:08:11;100050.41;;;23.34;35.12
45888;BME280;31595;51.418;7.572;2023-03-19T13:10:42;100054.50;;;23.25;34.87
45888;BME280;31595;51.418;7.572;2023-03-19T13:13:25;100050.88;;;24.58;32.18
45888;BME280;31595;51.418;7.572;2023-03-19T13:15:57;100051.16;;;23.52;34.18
45888;BME280;31595;51.418;7.572;2023-03-19T13:18:36;100057.75;;;23.27;34.49
45888;BME280;31595;51.418;7.572;2023-03-19T13:21:16;100065.13;;;22.93;36.06
45888;BME280;31595;51.418;7.572;2023-03-19T13:23:48;100061.13;;;22.54;37.00
45888;BME280;31595;51.418;7.572;2023-03-19T13:26:16;100057.84;;;22.20;37.66
45888;BME280;31595;51.418;7.572;2023-03-19T13:28:58;100067.50;;;21.76;38.24
45888;BME280;31595;51.418;7.572;2023-03-19T13:31:26;100071.38;;;21.39;39.23